Terminal Aerodrome Forecast
Issued by NWS Upton, NY

Home | Current Version | Previous Version | Text Only | Print | Product List | Glossary On
Versions: 1 2 3 4 5 6 7 8 9 10 11 12 13 14 15 16 17 18 19 20 21 22 23 24 25 26 27 28 29 30 31
000
FTUS41 KOKX 242039 AAB
TAFLGA
TAF AMD
KLGA 242039Z 2421/2518 05010KT P6SM OVC020
      TEMPO 2421/2423 FEW020 BKN035
     FM242300 05009KT P6SM OVC035
     FM250100 06004KT P6SM VCSH SCT009 OVC026
     FM250700 06007KT 5SM BR OVC009
     FM251200 04009G15KT P6SM OVC008
     FM251500 03009G16KT P6SM BKN022=

USA.gov is the U.S. government's official web portal to all federal, state and local government web resources and services.